Time;durP1;ratioP1;P1;durP2;ratioP2;P2;SDS_P1;SDS_P2;PMS_P1;PMS_P2;Temp;Humidity;BMP_temperature;BMP_pressure;BME280_temperature;BME280_humidity;BME280_pressure;Samples;Min_cycle;Max_cycle;Signal;HPM_P1;HPM_P2
2022/12/02 00:00:21;;;;;;;0.10;0.10;;;3.70;99.90;;;;;;4978621;28;20030;-74
2022/12/02 00:02:48;;;;;;;0.00;0.00;;;3.70;99.90;;;;;;4978552;28;20296;-74
2022/12/02 00:05:13;;;;;;;0.05;0.05;;;3.60;99.90;;;;;;4981022;28;20026;-74
2022/12/02 00:07:41;;;;;;;0.10;0.10;;;3.60;99.90;;;;;;4980223;28;20057;-74
2022/12/02 00:10:22;;;;;;;1.10;1.10;;;3.60;99.90;;;;;;4983041;28;20046;-74
2022/12/02 00:12:48;;;;;;;0.10;0.10;;;3.60;99.90;;;;;;4982594;28;20679;-75
2022/12/02 00:15:41;;;;;;;0.00;0.00;;;3.60;99.90;;;;;;4983960;28;20033;-74
2022/12/02 00:18:16;;;;;;;0.10;0.10;;;3.60;99.90;;;;;;4982391;28;20156;-75
2022/12/02 00:20:44;;;;;;;0.10;0.10;;;3.60;99.90;;;;;;4964691;28;20033;-74
2022/12/02 00:23:10;;;;;;;0.10;0.10;;;;;;;;;;4964654;28;20022;-74
2022/12/02 00:25:36;;;;;;;0.00;0.00;;;3.60;99.90;;;;;;4983365;28;20109;-75
2022/12/02 00:28:02;;;;;;;0.00;0.00;;;3.60;99.90;;;;;;4986610;28;20076;-74
2022/12/02 00:30:28;;;;;;;0.00;0.00;;;3.60;99.90;;;;;;4982902;28;20026;-74
2022/12/02 00:32:54;;;;;;;0.00;0.00;;;3.60;99.90;;;;;;4982581;28;20045;-75
2022/12/02 00:35:22;;;;;;;0.05;0.05;;;3.60;99.90;;;;;;4982463;28;20316;-74
2022/12/02 00:37:48;;;;;;;0.00;0.00;;;3.60;99.90;;;;;;4982613;28;20280;-75
2022/12/02 00:40:13;;;;;;;0.10;0.10;;;3.50;99.90;;;;;;4964849;28;20463;-74
2022/12/02 00:42:40;;;;;;;0.00;0.00;;;3.50;99.90;;;;;;4982367;28;20525;-74
2022/12/02 00:47:57;;;;;;;0.03;0.03;;;3.60;99.90;;;;;;4983420;28;20033;-75
2022/12/02 00:50:24;;;;;;;0.00;0.00;;;3.60;99.90;;;;;;4984046;28;20030;-75
2022/12/02 00:52:51;;;;;;;0.05;0.05;;;3.60;99.90;;;;;;4982150;28;20212;-74
2022/12/02 00:55:17;;;;;;;0.10;0.10;;;3.50;99.90;;;;;;4982305;28;20493;-74
2022/12/02 00:57:42;;;;;;;0.20;0.20;;;3.50;99.90;;;;;;4982069;28;20112;-74
2022/12/02 01:00:09;;;;;;;0.05;0.05;;;3.50;99.90;;;;;;4981577;28;20425;-75
2022/12/02 01:02:35;;;;;;;0.25;0.25;;;3.40;99.90;;;;;;4963908;28;20041;-75
2022/12/02 01:05:01;;;;;;;0.08;0.08;;;3.40;99.90;;;;;;4964212;28;20030;-74
2022/12/02 01:07:27;;;;;;;1.45;1.45;;;3.40;99.90;;;;;;4964241;28;20539;-75
2022/12/02 01:09:53;;;;;;;0.05;0.05;;;3.30;99.90;;;;;;4982350;28;20601;-75
2022/12/02 01:12:18;;;;;;;0.00;0.00;;;3.30;99.90;;;;;;4982441;28;20354;-74
2022/12/02 01:14:44;;;;;;;14.35;7.57;;;3.30;99.90;;;;;;4981404;28;20030;-75
2022/12/02 01:17:10;;;;;;;3.35;3.13;;;3.30;99.90;;;;;;4981372;28;20145;-75
2022/12/02 01:19:35;;;;;;;0.10;0.10;;;3.30;99.90;;;;;;4980272;28;20244;-74
2022/12/02 01:22:01;;;;;;;0.03;0.03;;;3.30;99.90;;;;;;4982343;28;20465;-75
2022/12/02 01:24:27;;;;;;;0.50;0.50;;;3.30;99.90;;;;;;4981783;28;20449;-75
2022/12/02 01:26:53;;;;;;;2.38;2.28;;;3.30;99.90;;;;;;4982006;28;20256;-75
2022/12/02 01:29:18;;;;;;;10.40;9.82;;;3.30;99.90;;;;;;4981652;28;20030;-75
2022/12/02 01:31:44;;;;;;;0.10;0.10;;;3.30;99.90;;;;;;4964095;28;20144;-75
2022/12/02 01:34:10;;;;;;;0.00;0.00;;;3.30;99.90;;;;;;4963371;28;20042;-75
2022/12/02 01:36:36;;;;;;;0.10;0.10;;;3.30;99.90;;;;;;4963892;28;20074;-75
2022/12/02 01:39:01;;;;;;;0.55;0.55;;;3.30;99.90;;;;;;4981736;28;20043;-75
2022/12/02 01:41:27;;;;;;;2.08;1.98;;;4.00;99.90;;;;;;4963583;28;20042;-75
2022/12/02 01:43:53;;;;;;;0.10;0.10;;;3.40;99.90;;;;;;4982013;28;20117;-75
2022/12/02 01:46:19;;;;;;;0.10;0.10;;;3.40;99.90;;;;;;4982148;28;20490;-75
2022/12/02 01:48:44;;;;;;;0.00;0.00;;;3.40;99.90;;;;;;4983677;28;20018;-75
2022/12/02 01:51:10;;;;;;;0.10;0.10;;;3.40;99.90;;;;;;4984536;28;20034;-75
2022/12/02 01:53:40;;;;;;;0.00;0.00;;;3.40;99.90;;;;;;4982109;28;20044;-75
2022/12/02 01:56:09;;;;;;;0.40;0.40;;;3.40;99.90;;;;;;4981257;28;20034;-75
2022/12/02 01:58:35;;;;;;;0.20;0.20;;;3.40;99.90;;;;;;4963811;28;20278;-75
2022/12/02 02:01:01;;;;;;;0.00;0.00;;;;;;;;;;4981911;28;20240;-76
2022/12/02 02:03:27;;;;;;;2.25;2.17;;;3.40;99.90;;;;;;4982342;28;20057;-75
2022/12/02 02:05:54;;;;;;;0.10;0.10;;;2.70;99.90;;;;;;4983224;28;20030;-74
2022/12/02 02:08:20;;;;;;;0.25;0.25;;;3.30;99.90;;;;;;4964390;28;20037;-74
2022/12/02 02:10:47;;;;;;;0.03;0.03;;;3.30;99.90;;;;;;4981490;28;20601;-74
2022/12/02 02:13:15;;;;;;;0.10;0.10;;;3.30;99.90;;;;;;4981728;28;20018;-74
2022/12/02 02:15:43;;;;;;;3.03;2.92;;;3.30;99.90;;;;;;4966252;28;20136;-74
2022/12/02 02:18:09;;;;;;;0.20;0.20;;;6.10;99.90;;;;;;4981962;28;20030;-75
2022/12/02 02:20:39;;;;;;;44.05;40.75;;;3.20;99.90;;;;;;4982372;28;20037;-75
2022/12/02 02:23:05;;;;;;;0.00;0.00;;;3.30;99.90;;;;;;4981952;28;20108;-74
2022/12/02 02:25:38;;;;;;;0.10;0.10;;;3.30;99.90;;;;;;4983040;28;20433;-74
2022/12/02 02:28:05;;;;;;;0.50;0.47;;;3.30;99.90;;;;;;4984884;28;20113;-75
2022/12/02 02:30:33;;;;;;;1.55;1.55;;;3.30;99.90;;;;;;4984690;28;20041;-75
2022/12/02 02:33:05;;;;;;;0.40;0.40;;;3.40;99.90;;;;;;4987098;28;20384;-75
2022/12/02 02:35:33;;;;;;;0.10;0.10;;;3.30;99.90;;;;;;4985538;28;20030;-75
2022/12/02 02:37:59;;;;;;;0.00;0.00;;;;;;;;;;4984823;28;20018;-75
2022/12/02 02:40:27;;;;;;;0.10;0.10;;;3.30;99.90;;;;;;4981326;28;20030;-74
2022/12/02 02:42:57;;;;;;;0.88;0.88;;;3.30;99.90;;;;;;4964489;28;20022;-75
2022/12/02 02:45:26;;;;;;;0.00;0.00;;;3.30;99.90;;;;;;4981514;28;20081;-74
2022/12/02 02:47:53;;;;;;;0.10;0.10;;;3.30;99.90;;;;;;4981339;28;20049;-75
2022/12/02 02:50:20;;;;;;;0.00;0.00;;;3.30;99.90;;;;;;4981635;28;20018;-75
2022/12/02 02:52:46;;;;;;;0.10;0.10;;;3.60;99.90;;;;;;4981756;28;20019;-75
2022/12/02 02:55:18;;;;;;;0.00;0.00;;;3.30;99.90;;;;;;4980888;28;20094;-75
2022/12/02 02:57:44;;;;;;;0.05;0.05;;;3.40;99.90;;;;;;4981953;28;20117;-75
2022/12/02 03:00:11;;;;;;;1.80;1.80;;;3.40;99.90;;;;;;4963407;28;20666;-74
2022/12/02 03:02:36;;;;;;;0.25;0.25;;;3.50;99.90;;;;;;4979733;28;20027;-74
2022/12/02 03:05:04;;;;;;;0.95;0.95;;;3.50;99.90;;;;;;4980445;28;20266;-75
2022/12/02 03:07:30;;;;;;;0.10;0.10;;;3.60;99.90;;;;;;4980060;28;20066;-74
2022/12/02 03:09:56;;;;;;;0.10;0.10;;;3.60;99.90;;;;;;4980574;28;20026;-75
2022/12/02 03:12:22;;;;;;;0.10;0.10;;;3.40;99.90;;;;;;4981792;28;20029;-75
2022/12/02 03:14:48;;;;;;;0.10;0.10;;;3.60;99.90;;;;;;4982752;28;20034;-74
2022/12/02 03:17:15;;;;;;;0.10;0.10;;;3.60;99.90;;;;;;4981002;28;20033;-75
2022/12/02 03:19:42;;;;;;;0.10;0.10;;;3.60;99.90;;;;;;4982237;28;20411;-74
2022/12/02 03:22:09;;;;;;;0.10;0.10;;;3.50;99.90;;;;;;4979941;28;20513;-75
2022/12/02 03:24:36;;;;;;;7.85;7.55;;;3.60;99.90;;;;;;4979903;28;20030;-74
2022/12/02 03:27:03;;;;;;;1.95;1.85;;;3.60;99.90;;;;;;4961879;28;20054;-74
2022/12/02 03:29:29;;;;;;;0.10;0.10;;;3.60;99.90;;;;;;4980072;28;20097;-75
2022/12/02 03:31:58;;;;;;;13.93;13.23;;;3.60;99.90;;;;;;4979891;28;20026;-74
2022/12/02 03:34:24;;;;;;;0.05;0.05;;;4.00;99.90;;;;;;4980552;28;20030;-74
2022/12/02 03:36:50;;;;;;;0.90;0.90;;;3.60;99.90;;;;;;4979587;28;20275;-74
2022/12/02 03:39:16;;;;;;;0.10;0.10;;;3.50;99.90;;;;;;4980125;28;20350;-74
2022/12/02 03:41:43;;;;;;;0.25;0.25;;;3.50;99.90;;;;;;4961587;28;20120;-74
2022/12/02 03:44:09;;;;;;;0.10;0.10;;;3.50;99.90;;;;;;4982626;28;20027;-74
2022/12/02 03:46:35;;;;;;;0.00;0.00;;;3.50;99.90;;;;;;4983331;28;20041;-74
2022/12/02 03:49:02;;;;;;;0.00;0.00;;;3.40;99.90;;;;;;4983963;28;20061;-74
2022/12/02 03:51:28;;;;;;;0.08;0.08;;;3.40;99.90;;;;;;4983382;28;20128;-74
2022/12/02 03:53:54;;;;;;;4.80;4.60;;;3.50;99.90;;;;;;4983178;28;20626;-74
2022/12/02 03:56:20;;;;;;;0.08;0.08;;;4.30;99.90;;;;;;4982975;28;20113;-74
2022/12/02 03:58:48;;;;;;;0.00;0.00;;;3.50;99.90;;;;;;4983764;28;20038;-75
2022/12/02 04:01:15;;;;;;;0.00;0.00;;;2.20;99.90;;;;;;4984131;28;20023;-74
2022/12/02 04:03:41;;;;;;;0.00;0.00;;;3.50;99.90;;;;;;4982713;28;20029;-74
2022/12/02 04:06:07;;;;;;;0.08;0.08;;;3.60;99.90;;;;;;4982733;28;20030;-74
2022/12/02 04:08:33;;;;;;;0.10;0.10;;;3.60;99.90;;;;;;4982724;28;20378;-75
2022/12/02 04:10:59;;;;;;;0.10;0.10;;;3.60;99.90;;;;;;4982712;28;20034;-74
2022/12/02 04:13:25;;;;;;;0.10;0.10;;;;;;;;;;4982400;28;20034;-74
2022/12/02 04:15:51;;;;;;;11.10;6.45;;;3.60;99.90;;;;;;4983935;28;20028;-75
2022/12/02 04:18:17;;;;;;;0.00;0.00;;;3.60;99.90;;;;;;4983110;28;20355;-74
2022/12/02 04:20:43;;;;;;;17.90;10.23;;;3.60;99.90;;;;;;4982769;28;20014;-74
2022/12/02 04:23:08;;;;;;;0.10;0.10;;;3.70;99.90;;;;;;4983109;28;20030;-74
2022/12/02 04:25:34;;;;;;;0.00;0.00;;;3.70;99.90;;;;;;4982334;28;20256;-74
2022/12/02 04:28:00;;;;;;;0.10;0.10;;;3.70;99.90;;;;;;4982328;28;20027;-74
2022/12/02 04:30:26;;;;;;;1.30;1.30;;;3.70;99.90;;;;;;4982759;28;20045;-74
2022/12/02 04:32:52;;;;;;;0.10;0.10;;;3.70;99.90;;;;;;4983035;28;20044;-74
2022/12/02 04:35:18;;;;;;;0.10;0.10;;;3.70;99.90;;;;;;4985348;28;20413;-74
2022/12/02 04:37:43;;;;;;;0.10;0.10;;;3.70;99.90;;;;;;4982499;28;20041;-74
2022/12/02 04:40:12;;;;;;;0.95;0.95;;;3.70;99.90;;;;;;4982368;28;20524;-74
2022/12/02 04:42:38;;;;;;;0.22;0.22;;;3.50;99.90;;;;;;4982611;28;20470;-74
2022/12/02 04:45:04;;;;;;;0.00;0.00;;;3.50;99.90;;;;;;4982111;28;20263;-74
2022/12/02 04:47:30;;;;;;;0.10;0.10;;;3.60;99.90;;;;;;4982194;28;20027;-74
2022/12/02 04:49:56;;;;;;;0.00;0.00;;;3.60;99.90;;;;;;4964059;28;20041;-74
2022/12/02 04:52:22;;;;;;;0.10;0.10;;;3.60;99.90;;;;;;4981849;28;20413;-74
2022/12/02 04:54:49;;;;;;;0.10;0.10;;;4.80;99.90;;;;;;4981912;28;20030;-74
2022/12/02 04:57:14;;;;;;;0.10;0.10;;;6.20;99.90;;;;;;4982088;28;20395;-75
2022/12/02 04:59:40;;;;;;;0.10;0.10;;;3.60;99.90;;;;;;4982385;28;20116;-74
2022/12/02 05:02:06;;;;;;;0.10;0.10;;;3.70;99.90;;;;;;4963969;28;20114;-74
2022/12/02 05:04:32;;;;;;;0.20;0.20;;;3.70;99.90;;;;;;4964166;28;20069;-74
2022/12/02 05:06:58;;;;;;;0.00;0.00;;;3.70;99.90;;;;;;4963748;28;20247;-75
2022/12/02 05:09:23;;;;;;;0.08;0.08;;;3.70;99.90;;;;;;4981874;28;20026;-75
2022/12/02 05:11:49;;;;;;;0.20;0.20;;;3.80;99.90;;;;;;4982079;28;20095;-74
2022/12/02 05:14:15;;;;;;;0.00;0.00;;;3.80;99.90;;;;;;4982753;28;20581;-74
2022/12/02 05:16:40;;;;;;;0.10;0.10;;;3.70;99.90;;;;;;4981642;28;20061;-74
2022/12/02 05:19:07;;;;;;;0.10;0.10;;;4.00;99.90;;;;;;4981043;28;20046;-74
2022/12/02 05:21:32;;;;;;;0.00;0.00;;;3.80;99.90;;;;;;4964106;28;20315;-74
2022/12/02 05:23:58;;;;;;;0.80;0.80;;;3.70;99.90;;;;;;4963972;28;20478;-74
2022/12/02 05:26:24;;;;;;;0.00;0.00;;;3.70;99.90;;;;;;4981863;28;20041;-74
2022/12/02 05:28:52;;;;;;;0.00;0.00;;;3.70;99.90;;;;;;4981561;28;20501;-74
2022/12/02 05:31:18;;;;;;;0.10;0.10;;;3.70;99.90;;;;;;4981850;28;20042;-74
2022/12/02 05:33:44;;;;;;;0.03;0.03;;;3.70;99.90;;;;;;4980977;28;20042;-74
2022/12/02 05:36:11;;;;;;;0.10;0.10;;;3.80;99.90;;;;;;4981173;28;20065;-74
2022/12/02 05:38:40;;;;;;;0.95;0.95;;;3.70;99.90;;;;;;4981534;28;20064;-74
2022/12/02 05:41:06;;;;;;;5.63;5.38;;;3.80;99.90;;;;;;4982522;28;20018;-74
2022/12/02 05:43:41;;;;;;;0.47;0.47;;;3.40;99.90;;;;;;4967335;28;20328;-75
2022/12/02 05:46:13;;;;;;;0.10;0.10;;;3.80;99.90;;;;;;4991026;28;20053;-74
2022/12/02 05:48:40;;;;;;;0.00;0.00;;;3.80;99.90;;;;;;4991289;28;20104;-75
2022/12/02 05:51:13;;;;;;;0.10;0.10;;;3.90;99.90;;;;;;4990812;28;20162;-75
2022/12/02 05:53:41;;;;;;;;;;;3.90;99.90;;;;;;4989557;28;20034;-74
2022/12/02 05:56:28;;;;;;;0.10;0.10;;;3.90;99.90;;;;;;4968495;28;20088;-75
2022/12/02 05:59:01;;;;;;;0.10;0.10;;;3.90;99.90;;;;;;4983440;28;20027;-74
2022/12/02 06:01:38;;;;;;;0.10;0.10;;;3.90;99.90;;;;;;4981907;28;20030;-74
2022/12/02 06:04:38;;;;;;;0.05;0.05;;;3.90;99.90;;;;;;4981559;28;20041;-74
2022/12/02 06:07:10;;;;;;;0.03;0.03;;;3.90;99.90;;;;;;4881538;29;20214;-74
2022/12/02 06:09:36;;;;;;;0.10;0.10;;;3.90;99.90;;;;;;4884924;29;20079;-74
2022/12/02 06:12:02;;;;;;;0.30;0.30;;;4.00;99.90;;;;;;4854114;29;20060;-74
2022/12/02 06:14:32;;;;;;;0.00;0.00;;;4.00;99.90;;;;;;4866369;29;20725;-74
2022/12/02 06:17:01;;;;;;;7.00;6.72;;;3.90;99.90;;;;;;4881996;29;20045;-74
2022/12/02 06:19:41;;;;;;;0.10;0.10;;;4.00;99.90;;;;;;4866399;29;20064;-74
2022/12/02 06:22:26;;;;;;;20.85;4.88;;;4.00;99.90;;;;;;4882119;29;20395;-74
2022/12/02 06:24:52;;;;;;;;;;;4.00;99.90;;;;;;4882738;29;20184;-74
2022/12/02 06:27:18;;;;;;;1.80;1.75;;;3.90;99.90;;;;;;4881789;29;19915;-74
2022/12/02 06:29:58;;;;;;;0.00;0.00;;;3.90;99.90;;;;;;4866835;29;20039;-74
2022/12/02 06:32:35;;;;;;;0.13;0.13;;;4.00;99.90;;;;;;4882348;29;20367;-75
2022/12/02 06:35:15;;;;;;;51.80;48.95;;;4.00;99.90;;;;;;4882870;29;20041;-74
2022/12/02 06:37:42;;;;;;;0.10;0.10;;;4.00;99.90;;;;;;4882634;29;20084;-74
2022/12/02 06:40:23;;;;;;;0.80;0.80;;;4.20;99.90;;;;;;4883659;29;20047;-75
2022/12/02 06:42:49;;;;;;;0.00;0.00;;;4.20;99.90;;;;;;4922115;28;20042;-74
2022/12/02 06:45:28;;;;;;;6.55;6.32;;;4.20;99.90;;;;;;4981963;28;20399;-74
2022/12/02 06:48:03;;;;;;;0.00;0.00;;;4.20;99.90;;;;;;4981972;28;20030;-74
2022/12/02 06:50:29;;;;;;;0.75;0.75;;;4.20;99.90;;;;;;4983188;28;20015;-74
2022/12/02 06:53:25;;;;;;;0.10;0.10;;;4.20;99.90;;;;;;4984705;28;20026;-74
2022/12/02 06:55:59;;;;;;;0.10;0.10;;;4.30;99.90;;;;;;4947645;28;20029;-76
2022/12/02 06:58:34;;;;;;;0.00;0.00;;;4.30;99.90;;;;;;4981210;28;20060;-76
2022/12/02 07:01:15;;;;;;;3.33;3.20;;;4.30;99.90;;;;;;4980273;28;20021;-74
2022/12/02 07:03:59;;;;;;;4.95;4.75;;;4.30;99.90;;;;;;4979556;28;20026;-74
2022/12/02 07:06:27;;;;;;;1.20;1.20;;;4.30;99.90;;;;;;4980137;28;20042;-73
2022/12/02 07:08:59;;;;;;;0.00;0.00;;;4.20;99.90;;;;;;4980080;28;20030;-74
2022/12/02 07:11:52;;;;;;;0.03;0.03;;;4.20;99.90;;;;;;4979592;28;20080;-74
2022/12/02 07:14:27;;;;;;;3.45;3.30;;;4.10;99.90;;;;;;4980050;28;20053;-74
2022/12/02 07:17:05;;;;;;;0.10;0.10;;;4.20;99.90;;;;;;4963250;28;20699;-74
2022/12/02 07:19:43;;;;;;;0.57;0.57;;;4.30;99.90;;;;;;4986153;28;20034;-74
2022/12/02 07:22:33;;;;;;;0.03;0.03;;;4.40;99.90;;;;;;4987391;28;20085;-74
2022/12/02 07:25:30;;;;;;;0.25;0.25;;;4.40;99.90;;;;;;4959298;28;20038;-74
2022/12/02 07:27:56;;;;;;;0.13;0.13;;;4.40;99.90;;;;;;4984196;28;20014;-74
2022/12/02 07:30:25;;;;;;;0.05;0.05;;;4.50;99.90;;;;;;4985575;28;20025;-74
2022/12/02 07:32:51;;;;;;;0.10;0.10;;;4.50;99.90;;;;;;4984684;28;20037;-74
2022/12/02 07:35:18;;;;;;;0.10;0.10;;;4.50;99.90;;;;;;4990437;28;20026;-74
2022/12/02 07:37:44;;;;;;;0.10;0.10;;;4.50;99.90;;;;;;4984389;28;20018;-74
2022/12/02 07:40:12;;;;;;;0.35;0.35;;;4.40;99.90;;;;;;4984140;28;20033;-74
2022/12/02 07:42:38;;;;;;;0.17;0.17;;;4.50;99.90;;;;;;4983807;28;20689;-74
2022/12/02 07:45:04;;;;;;;0.10;0.10;;;4.50;99.90;;;;;;4983297;28;20026;-74
2022/12/02 07:47:31;;;;;;;0.10;0.10;;;4.60;99.90;;;;;;4984860;28;20046;-74
2022/12/02 07:49:57;;;;;;;0.10;0.10;;;4.60;99.90;;;;;;4983297;28;20025;-74
2022/12/02 07:52:24;;;;;;;1.05;1.05;;;4.70;99.90;;;;;;4983062;28;20081;-74
2022/12/02 07:54:50;;;;;;;0.10;0.10;;;4.70;99.90;;;;;;4966101;28;20563;-74
2022/12/02 07:57:20;;;;;;;0.20;0.20;;;4.80;99.90;;;;;;4984565;28;20559;-74
2022/12/02 07:59:45;;;;;;;0.10;0.10;;;4.70;99.90;;;;;;4984235;28;20023;-74
2022/12/02 08:02:11;;;;;;;1.67;1.58;;;4.80;99.90;;;;;;4983066;28;20574;-74
2022/12/02 08:04:37;;;;;;;0.10;0.10;;;4.90;99.90;;;;;;4982030;28;20036;-74
2022/12/02 08:07:03;;;;;;;0.52;0.52;;;4.90;99.90;;;;;;4981963;28;20027;-74
2022/12/02 08:09:28;;;;;;;0.10;0.10;;;5.00;99.90;;;;;;4982232;28;20015;-74
2022/12/02 08:11:54;;;;;;;0.20;0.20;;;5.00;99.90;;;;;;4982211;28;20030;-74
2022/12/02 08:14:20;;;;;;;0.10;0.10;;;4.80;99.90;;;;;;4981947;28;20216;-74
2022/12/02 08:16:46;;;;;;;0.10;0.10;;;4.90;99.90;;;;;;4982164;28;20029;-74
2022/12/02 08:19:11;;;;;;;0.15;0.15;;;5.00;99.90;;;;;;4981779;28;20734;-74
2022/12/02 08:21:39;;;;;;;0.75;0.75;;;5.00;99.90;;;;;;4983704;28;20022;-74
2022/12/02 08:24:06;;;;;;;0.10;0.10;;;4.90;99.90;;;;;;4982120;28;20101;-74
2022/12/02 08:26:32;;;;;;;0.43;0.43;;;5.00;99.90;;;;;;4964416;28;20571;-74
2022/12/02 08:28:58;;;;;;;0.20;0.20;;;5.00;99.90;;;;;;4981679;28;20102;-74
2022/12/02 08:31:24;;;;;;;11.35;10.82;;;5.20;99.90;;;;;;4981924;28;20023;-74
2022/12/02 08:33:50;;;;;;;0.03;0.03;;;5.30;99.90;;;;;;4983455;28;20300;-74
2022/12/02 08:36:16;;;;;;;0.10;0.10;;;;;;;;;;4982465;28;20037;-75
2022/12/02 08:38:43;;;;;;;12.85;12.38;;;;;;;;;;4983534;28;20088;-74
2022/12/02 08:41:10;;;;;;;0.20;0.20;;;5.40;99.90;;;;;;4983861;28;20022;-75
2022/12/02 08:43:36;;;;;;;0.63;0.63;;;;;;;;;;4987479;28;20705;-75
2022/12/02 08:46:02;;;;;;;0.47;0.47;;;;;;;;;;4987289;28;20544;-73
2022/12/02 08:48:27;;;;;;;0.90;0.90;;;5.20;99.90;;;;;;4994155;28;20124;-74
2022/12/02 08:50:56;;;;;;;0.10;0.10;;;5.20;99.90;;;;;;4988019;28;20018;-74
2022/12/02 08:53:22;;;;;;;13.25;12.70;;;5.20;99.90;;;;;;4986024;28;20034;-74
2022/12/02 08:55:48;;;;;;;0.80;0.80;;;5.30;99.90;;;;;;4966098;28;20032;-74
2022/12/02 08:58:14;;;;;;;0.10;0.10;;;;;;;;;;4985508;28;20035;-73
2022/12/02 09:00:40;;;;;;;0.10;0.10;;;5.30;99.90;;;;;;4992852;28;20098;-75
2022/12/02 09:03:10;;;;;;;0.15;0.15;;;5.30;99.90;;;;;;4987687;28;20525;-74
2022/12/02 09:05:38;;;;;;;0.10;0.10;;;5.30;99.90;;;;;;4971846;28;20104;-75
2022/12/02 09:08:04;;;;;;;0.40;0.40;;;5.40;99.90;;;;;;4987615;28;20070;-75
2022/12/02 09:10:30;;;;;;;17.42;13.95;;;5.40;99.90;;;;;;4984865;28;20018;-74
2022/12/02 09:12:56;;;;;;;0.10;0.10;;;5.50;99.90;;;;;;4982114;28;20030;-74
2022/12/02 09:15:22;;;;;;;0.10;0.10;;;5.60;99.90;;;;;;4982494;28;20026;-74
2022/12/02 09:17:48;;;;;;;0.10;0.10;;;4.60;99.90;;;;;;4983377;28;20034;-75
2022/12/02 09:20:16;;;;;;;0.10;0.10;;;5.80;99.90;;;;;;4981950;28;20030;-73
2022/12/02 09:22:46;;;;;;;0.10;0.10;;;5.90;99.90;;;;;;4982378;28;20224;-74
2022/12/02 09:25:13;;;;;;;2.25;2.15;;;6.00;99.90;;;;;;4965602;28;20244;-74
2022/12/02 09:27:39;;;;;;;0.10;0.10;;;6.00;99.90;;;;;;4969848;28;20448;-74
2022/12/02 09:30:06;;;;;;;0.40;0.40;;;6.20;99.90;;;;;;4990013;28;20031;-73
2022/12/02 09:32:32;;;;;;;0.20;0.20;;;6.50;99.90;;;;;;4985619;28;20033;-74
2022/12/02 09:34:58;;;;;;;0.47;0.47;;;;;;;;;;4984038;28;20085;-75
2022/12/02 09:37:25;;;;;;;0.40;0.40;;;6.80;99.90;;;;;;4984760;28;20027;-74
2022/12/02 09:39:51;;;;;;;38.38;36.72;;;6.80;99.90;;;;;;4983038;28;20030;-74
2022/12/02 09:42:18;;;;;;;0.20;0.20;;;6.80;99.90;;;;;;4983179;28;20101;-74
2022/12/02 09:44:45;;;;;;;2.50;2.40;;;6.80;99.90;;;;;;4984331;28;20054;-74
2022/12/02 09:47:12;;;;;;;0.20;0.20;;;6.70;99.90;;;;;;4966655;28;20279;-75
2022/12/02 09:49:38;;;;;;;2.67;2.58;;;6.80;99.90;;;;;;4984011;28;20109;-75
2022/12/02 09:52:12;;;;;;;0.25;0.25;;;6.80;99.90;;;;;;4984046;28;20018;-75
2022/12/02 09:54:38;;;;;;;0.10;0.10;;;6.70;99.90;;;;;;4965598;28;20025;-75
2022/12/02 09:57:12;;;;;;;0.20;0.20;;;6.80;99.90;;;;;;4981698;28;20071;-74
2022/12/02 09:59:40;;;;;;;14.63;5.20;;;6.50;99.90;;;;;;4981274;28;20093;-74
2022/12/02 10:02:25;;;;;;;0.28;0.28;;;6.60;99.90;;;;;;4981541;28;20085;-75
2022/12/02 10:04:51;;;;;;;5.50;5.05;;;6.80;99.90;;;;;;4983233;28;20540;-74
2022/12/02 10:07:17;;;;;;;0.30;0.30;;;6.70;99.90;;;;;;4967085;28;20030;-74
2022/12/02 10:09:43;;;;;;;0.40;0.40;;;6.60;99.90;;;;;;4985778;28;20113;-75
2022/12/02 10:12:10;;;;;;;1.30;1.30;;;6.70;99.90;;;;;;4985205;28;20011;-75
2022/12/02 10:14:37;;;;;;;1.67;1.58;;;6.70;99.90;;;;;;4983911;28;20085;-74
2022/12/02 10:17:18;;;;;;;0.40;0.40;;;6.70;99.90;;;;;;4984575;28;20028;-74
2022/12/02 10:19:45;;;;;;;0.40;0.40;;;6.70;99.90;;;;;;4987795;28;20035;-74
2022/12/02 10:22:20;;;;;;;0.60;0.60;;;6.50;99.90;;;;;;4989334;28;20026;-74
2022/12/02 10:24:48;;;;;;;0.20;0.20;;;6.30;99.90;;;;;;4970772;28;20034;-75
2022/12/02 10:27:30;;;;;;;0.10;0.10;;;6.30;99.90;;;;;;4987940;28;20057;-74
2022/12/02 10:30:16;;;;;;;1.05;1.05;;;6.20;99.90;;;;;;4984483;28;20041;-74
2022/12/02 10:33:00;;;;;;;9.68;8.88;;;6.20;99.90;;;;;;4985883;28;20030;-74
2022/12/02 10:35:27;;;;;;;0.20;0.20;;;6.10;99.90;;;;;;4990008;28;20052;-73
2022/12/02 10:37:53;;;;;;;0.20;0.20;;;6.10;99.90;;;;;;4988927;28;20117;-74
2022/12/02 10:40:22;;;;;;;0.10;0.10;;;6.10;99.90;;;;;;4965130;28;20129;-75
2022/12/02 10:43:07;;;;;;;0.43;0.43;;;6.10;99.90;;;;;;4981102;28;20075;-74
2022/12/02 10:45:33;;;;;;;1.85;1.75;;;6.10;99.90;;;;;;4981326;28;20015;-74
2022/12/02 10:48:17;;;;;;;11.15;10.68;;;6.20;99.90;;;;;;4982331;28;20073;-74
2022/12/02 10:50:43;;;;;;;0.30;0.30;;;6.30;99.90;;;;;;4983893;28;20109;-75
2022/12/02 10:53:14;;;;;;;0.20;0.20;;;6.40;99.90;;;;;;4981196;28;20030;-74
2022/12/02 10:55:40;;;;;;;0.52;0.52;;;6.30;99.90;;;;;;4981163;28;20300;-74
2022/12/02 10:58:16;;;;;;;0.40;0.40;;;6.40;99.90;;;;;;4981501;28;20037;-75
2022/12/02 11:00:45;;;;;;;0.20;0.20;;;6.50;99.90;;;;;;4983107;28;20022;-74
2022/12/02 11:03:13;;;;;;;1.23;1.20;;;6.50;99.90;;;;;;4981441;28;20030;-74
2022/12/02 11:05:40;;;;;;;0.20;0.20;;;6.50;99.90;;;;;;4981960;28;20026;-74
2022/12/02 11:08:15;;;;;;;6.22;3.13;;;6.60;99.90;;;;;;4980394;28;20044;-74
2022/12/02 11:10:48;;;;;;;0.20;0.20;;;6.70;99.90;;;;;;4987262;28;20025;-74
2022/12/02 11:13:17;;;;;;;0.10;0.10;;;4.80;99.90;;;;;;4984190;28;20026;-74
2022/12/02 11:15:49;;;;;;;1.35;1.20;;;6.90;99.90;;;;;;4980021;28;20029;-75
2022/12/02 11:18:24;;;;;;;8.07;7.78;;;6.90;99.90;;;;;;4980381;28;20057;-75
2022/12/02 11:20:57;;;;;;;0.40;0.40;;;7.00;99.90;;;;;;4981322;28;20223;-75
2022/12/02 11:23:25;;;;;;;0.20;0.20;;;7.00;99.90;;;;;;4980749;28;20029;-74
2022/12/02 11:26:10;;;;;;;1.08;1.08;;;7.10;99.90;;;;;;4981701;28;20033;-74
2022/12/02 11:28:46;;;;;;;0.20;0.20;;;7.20;99.90;;;;;;4962382;28;20053;-74
2022/12/02 11:31:13;;;;;;;0.20;0.20;;;7.20;99.90;;;;;;4982405;28;20102;-74
2022/12/02 11:33:47;;;;;;;1.63;1.52;;;7.20;99.90;;;;;;4982917;28;20085;-74
2022/12/02 11:36:22;;;;;;;0.10;0.10;;;7.20;99.90;;;;;;4980396;28;20228;-75
2022/12/02 11:38:50;;;;;;;0.30;0.30;;;7.20;99.90;;;;;;4980437;28;20391;-74
2022/12/02 11:41:26;;;;;;;4.18;3.90;;;7.20;99.90;;;;;;4980704;28;20053;-74
2022/12/02 11:43:59;;;;;;;0.30;0.30;;;7.20;99.90;;;;;;4980098;28;20564;-75
2022/12/02 11:46:45;;;;;;;0.25;0.25;;;7.10;99.90;;;;;;4981551;28;20034;-74
2022/12/02 11:49:35;;;;;;;1.85;1.70;;;7.10;99.90;;;;;;4980047;28;20042;-74
2022/12/02 11:52:03;;;;;;;37.25;34.17;;;7.00;99.90;;;;;;4980208;28;20026;-73
2022/12/02 11:54:29;;;;;;;0.20;0.20;;;6.90;99.90;;;;;;4981425;28;20030;-74
2022/12/02 11:56:56;;;;;;;8.73;8.35;;;6.90;99.90;;;;;;4980496;28;20342;-74
2022/12/02 11:59:28;;;;;;;4.97;4.68;;;6.90;99.90;;;;;;4980949;28;20034;-75
2022/12/02 12:02:21;;;;;;;0.10;0.10;;;5.30;99.90;;;;;;4981528;28;20113;-74
2022/12/02 12:04:59;;;;;;;0.17;0.17;;;7.10;99.90;;;;;;4887677;29;20284;-74
2022/12/02 12:07:44;;;;;;;0.20;0.20;;;6.70;99.90;;;;;;4887190;29;20052;-74
2022/12/02 12:10:42;;;;;;;0.20;0.20;;;6.80;99.90;;;;;;4886392;29;20036;-74
2022/12/02 12:13:22;;;;;;;0.10;0.10;;;6.70;99.90;;;;;;4833444;29;20038;-76
2022/12/02 12:15:55;;;;;;;0.20;0.20;;;6.80;99.90;;;;;;4837159;29;20037;-74
2022/12/02 12:18:49;;;;;;;0.20;0.20;;;6.90;99.90;;;;;;4836455;29;20285;-74
2022/12/02 12:21:30;;;;;;;33.97;31.52;;;6.90;99.90;;;;;;4836240;29;20132;-74
2022/12/02 12:24:17;;;;;;;6.13;3.92;;;7.00;99.90;;;;;;4830741;29;20478;-75
2022/12/02 12:26:45;;;;;;;0.20;0.20;;;7.10;99.90;;;;;;4814210;29;20226;-73
2022/12/02 12:29:11;;;;;;;0.20;0.20;;;7.20;99.90;;;;;;4828911;29;20053;-74
2022/12/02 12:31:37;;;;;;;0.55;0.55;;;7.30;99.90;;;;;;4829889;29;20030;-74
2022/12/02 12:34:03;;;;;;;2.55;2.45;;;7.30;99.90;;;;;;4813708;29;20433;-74
2022/12/02 12:36:29;;;;;;;0.20;0.20;;;7.10;99.90;;;;;;4813711;29;20401;-74
2022/12/02 12:38:55;;;;;;;1.58;1.48;;;7.10;99.90;;;;;;4813554;29;20503;-74
2022/12/02 12:41:21;;;;;;;1.17;1.17;;;7.10;99.90;;;;;;4846259;29;20338;-74
2022/12/02 12:43:47;;;;;;;0.73;0.73;;;7.10;99.90;;;;;;4883891;29;20201;-74
2022/12/02 12:46:13;;;;;;;0.85;0.85;;;;;;;;;;4883706;29;20036;-74
2022/12/02 12:48:39;;;;;;;0.20;0.20;;;7.10;99.90;;;;;;4927648;28;20034;-74
2022/12/02 12:51:05;;;;;;;10.50;10.10;;;7.10;99.90;;;;;;4982931;28;20104;-73
2022/12/02 12:53:31;;;;;;;0.28;0.28;;;7.10;99.90;;;;;;4984007;28;20231;-74
2022/12/02 12:55:56;;;;;;;0.20;0.20;;;7.10;99.90;;;;;;4986667;28;20045;-75
2022/12/02 12:58:22;;;;;;;1.42;1.38;;;7.10;99.90;;;;;;4983799;28;20102;-74
2022/12/02 13:00:50;;;;;;;15.65;14.80;;;7.10;99.90;;;;;;4983051;28;20250;-74
2022/12/02 13:03:16;;;;;;;0.20;0.20;;;7.10;99.90;;;;;;4982715;28;20023;-74
2022/12/02 13:05:42;;;;;;;2.22;2.15;;;7.10;99.90;;;;;;4983026;28;20228;-75
2022/12/02 13:08:08;;;;;;;13.15;12.60;;;7.60;99.90;;;;;;4964932;28;20509;-74
2022/12/02 13:10:33;;;;;;;0.20;0.20;;;7.10;99.90;;;;;;4982944;28;20033;-74
2022/12/02 13:12:59;;;;;;;1.60;1.55;;;7.10;99.90;;;;;;4984468;28;20328;-74